sensor_id;sensor_type;location;lat;lon;timestamp;P1;durP1;ratioP1;P2;durP2;ratioP2
41829;SDS011;38614;43.472;23.936;2023-11-22T00:02:05;24.50;;;12.70;;
41829;SDS011;38614;43.472;23.936;2023-11-22T00:04:53;28.08;;;15.13;;
41829;SDS011;38614;43.472;23.936;2023-11-22T00:07:41;27.73;;;15.57;;
41829;SDS011;38614;43.472;23.936;2023-11-22T00:10:29;29.45;;;13.70;;
41829;SDS011;38614;43.472;23.936;2023-11-22T00:13:16;30.00;;;15.18;;
41829;SDS011;38614;43.472;23.936;2023-11-22T00:16:04;30.00;;;13.32;;
41829;SDS011;38614;43.472;23.936;2023-11-22T00:18:52;27.92;;;13.55;;
41829;SDS011;38614;43.472;23.936;2023-11-22T00:21:39;31.33;;;16.35;;
41829;SDS011;38614;43.472;23.936;2023-11-22T00:24:27;32.15;;;16.73;;
41829;SDS011;38614;43.472;23.936;2023-11-22T00:27:15;31.08;;;16.50;;
41829;SDS011;38614;43.472;23.936;2023-11-22T00:30:05;30.95;;;17.98;;
41829;SDS011;38614;43.472;23.936;2023-11-22T00:32:53;32.83;;;17.38;;
41829;SDS011;38614;43.472;23.936;2023-11-22T00:35:40;35.80;;;16.08;;
41829;SDS011;38614;43.472;23.936;2023-11-22T00:38:28;30.08;;;15.38;;
41829;SDS011;38614;43.472;23.936;2023-11-22T00:41:16;29.60;;;16.35;;
41829;SDS011;38614;43.472;23.936;2023-11-22T00:44:04;32.80;;;16.90;;
41829;SDS011;38614;43.472;23.936;2023-11-22T00:46:53;25.00;;;14.15;;
41829;SDS011;38614;43.472;23.936;2023-11-22T00:49:41;27.88;;;14.88;;
41829;SDS011;38614;43.472;23.936;2023-11-22T00:52:28;29.85;;;15.02;;
41829;SDS011;38614;43.472;23.936;2023-11-22T00:55:16;25.48;;;13.63;;
41829;SDS011;38614;43.472;23.936;2023-11-22T00:58:04;28.38;;;14.80;;
41829;SDS011;38614;43.472;23.936;2023-11-22T01:00:52;28.33;;;14.57;;
41829;SDS011;38614;43.472;23.936;2023-11-22T01:03:41;29.08;;;15.68;;
41829;SDS011;38614;43.472;23.936;2023-11-22T01:06:30;27.60;;;14.73;;
41829;SDS011;38614;43.472;23.936;2023-11-22T01:09:19;31.10;;;14.98;;
41829;SDS011;38614;43.472;23.936;2023-11-22T01:12:07;26.17;;;14.48;;
41829;SDS011;38614;43.472;23.936;2023-11-22T01:14:56;25.17;;;14.18;;
41829;SDS011;38614;43.472;23.936;2023-11-22T01:17:44;22.33;;;13.52;;
41829;SDS011;38614;43.472;23.936;2023-11-22T01:20:32;24.23;;;14.23;;
41829;SDS011;38614;43.472;23.936;2023-11-22T01:23:20;22.20;;;13.77;;
41829;SDS011;38614;43.472;23.936;2023-11-22T01:26:08;26.42;;;15.55;;
41829;SDS011;38614;43.472;23.936;2023-11-22T01:28:57;34.40;;;15.52;;
41829;SDS011;38614;43.472;23.936;2023-11-22T01:31:45;28.23;;;14.50;;
41829;SDS011;38614;43.472;23.936;2023-11-22T01:34:33;34.83;;;15.48;;
41829;SDS011;38614;43.472;23.936;2023-11-22T01:37:20;31.58;;;13.43;;
41829;SDS011;38614;43.472;23.936;2023-11-22T01:40:09;28.95;;;16.33;;
41829;SDS011;38614;43.472;23.936;2023-11-22T01:42:59;32.65;;;16.08;;
41829;SDS011;38614;43.472;23.936;2023-11-22T01:45:47;28.73;;;16.63;;
41829;SDS011;38614;43.472;23.936;2023-11-22T01:48:36;28.27;;;14.75;;
41829;SDS011;38614;43.472;23.936;2023-11-22T01:51:27;31.67;;;14.55;;
41829;SDS011;38614;43.472;23.936;2023-11-22T01:54:14;27.85;;;14.57;;
41829;SDS011;38614;43.472;23.936;2023-11-22T01:57:03;31.40;;;14.68;;
41829;SDS011;38614;43.472;23.936;2023-11-22T01:59:52;27.75;;;14.70;;
41829;SDS011;38614;43.472;23.936;2023-11-22T02:02:41;27.77;;;14.32;;
41829;SDS011;38614;43.472;23.936;2023-11-22T02:05:29;38.50;;;15.82;;
41829;SDS011;38614;43.472;23.936;2023-11-22T02:08:17;28.00;;;15.57;;
41829;SDS011;38614;43.472;23.936;2023-11-22T02:11:06;26.48;;;14.98;;
41829;SDS011;38614;43.472;23.936;2023-11-22T02:13:53;29.23;;;15.50;;
41829;SDS011;38614;43.472;23.936;2023-11-22T02:16:41;26.42;;;15.38;;
41829;SDS011;38614;43.472;23.936;2023-11-22T02:19:29;26.45;;;14.55;;
41829;SDS011;38614;43.472;23.936;2023-11-22T02:22:17;21.10;;;13.73;;
41829;SDS011;38614;43.472;23.936;2023-11-22T02:25:05;42.17;;;15.02;;
41829;SDS011;38614;43.472;23.936;2023-11-22T02:27:53;27.25;;;13.95;;
41829;SDS011;38614;43.472;23.936;2023-11-22T02:30:41;29.58;;;13.80;;
41829;SDS011;38614;43.472;23.936;2023-11-22T02:33:29;28.25;;;13.80;;
41829;SDS011;38614;43.472;23.936;2023-11-22T02:36:18;23.10;;;12.95;;
41829;SDS011;38614;43.472;23.936;2023-11-22T02:39:05;25.05;;;12.25;;
41829;SDS011;38614;43.472;23.936;2023-11-22T02:41:53;23.13;;;13.20;;
41829;SDS011;38614;43.472;23.936;2023-11-22T02:44:41;23.02;;;12.77;;
41829;SDS011;38614;43.472;23.936;2023-11-22T02:47:29;21.15;;;11.65;;
41829;SDS011;38614;43.472;23.936;2023-11-22T02:50:17;22.00;;;12.00;;
41829;SDS011;38614;43.472;23.936;2023-11-22T02:53:05;24.15;;;11.77;;
41829;SDS011;38614;43.472;23.936;2023-11-22T02:55:53;23.00;;;11.15;;
41829;SDS011;38614;43.472;23.936;2023-11-22T02:58:43;17.92;;;10.63;;
41829;SDS011;38614;43.472;23.936;2023-11-22T03:01:31;24.33;;;11.82;;
41829;SDS011;38614;43.472;23.936;2023-11-22T03:04:18;22.98;;;12.48;;
41829;SDS011;38614;43.472;23.936;2023-11-22T03:07:06;20.55;;;10.90;;
41829;SDS011;38614;43.472;23.936;2023-11-22T03:09:54;18.63;;;11.18;;
41829;SDS011;38614;43.472;23.936;2023-11-22T03:12:42;18.92;;;11.48;;
41829;SDS011;38614;43.472;23.936;2023-11-22T03:15:30;21.70;;;12.05;;
41829;SDS011;38614;43.472;23.936;2023-11-22T03:18:19;26.92;;;11.80;;
41829;SDS011;38614;43.472;23.936;2023-11-22T03:21:09;22.60;;;11.48;;
41829;SDS011;38614;43.472;23.936;2023-11-22T03:23:57;21.83;;;12.65;;
41829;SDS011;38614;43.472;23.936;2023-11-22T03:26:45;21.13;;;11.93;;
41829;SDS011;38614;43.472;23.936;2023-11-22T03:29:33;26.67;;;13.00;;
41829;SDS011;38614;43.472;23.936;2023-11-22T03:32:22;25.48;;;11.85;;
41829;SDS011;38614;43.472;23.936;2023-11-22T03:35:10;24.08;;;13.55;;
41829;SDS011;38614;43.472;23.936;2023-11-22T03:37:58;28.42;;;13.10;;
41829;SDS011;38614;43.472;23.936;2023-11-22T03:40:45;35.45;;;17.73;;
41829;SDS011;38614;43.472;23.936;2023-11-22T03:43:33;42.33;;;23.42;;
41829;SDS011;38614;43.472;23.936;2023-11-22T03:46:21;41.75;;;21.23;;
41829;SDS011;38614;43.472;23.936;2023-11-22T03:49:09;33.63;;;16.42;;
41829;SDS011;38614;43.472;23.936;2023-11-22T03:52:02;31.52;;;14.63;;
41829;SDS011;38614;43.472;23.936;2023-11-22T03:54:50;22.02;;;12.10;;
41829;SDS011;38614;43.472;23.936;2023-11-22T03:57:38;34.53;;;18.13;;
41829;SDS011;38614;43.472;23.936;2023-11-22T04:00:26;27.42;;;14.80;;
41829;SDS011;38614;43.472;23.936;2023-11-22T04:03:13;24.17;;;14.05;;
41829;SDS011;38614;43.472;23.936;2023-11-22T04:06:01;23.50;;;14.18;;
41829;SDS011;38614;43.472;23.936;2023-11-22T04:08:49;29.52;;;12.73;;
41829;SDS011;38614;43.472;23.936;2023-11-22T04:11:37;25.17;;;13.25;;
41829;SDS011;38614;43.472;23.936;2023-11-22T04:14:24;30.65;;;12.57;;
41829;SDS011;38614;43.472;23.936;2023-11-22T04:17:14;22.05;;;12.32;;
41829;SDS011;38614;43.472;23.936;2023-11-22T04:20:09;27.05;;;13.88;;
41829;SDS011;38614;43.472;23.936;2023-11-22T04:22:58;27.20;;;14.10;;
41829;SDS011;38614;43.472;23.936;2023-11-22T04:25:45;23.90;;;13.25;;
41829;SDS011;38614;43.472;23.936;2023-11-22T04:28:33;28.63;;;13.15;;
41829;SDS011;38614;43.472;23.936;2023-11-22T04:31:21;27.92;;;15.38;;
41829;SDS011;38614;43.472;23.936;2023-11-22T04:34:09;23.05;;;13.00;;
41829;SDS011;38614;43.472;23.936;2023-11-22T04:36:57;23.27;;;13.23;;
41829;SDS011;38614;43.472;23.936;2023-11-22T04:39:45;26.00;;;14.05;;
41829;SDS011;38614;43.472;23.936;2023-11-22T04:42:36;25.95;;;13.48;;
41829;SDS011;38614;43.472;23.936;2023-11-22T04:45:24;24.25;;;12.30;;
41829;SDS011;38614;43.472;23.936;2023-11-22T04:48:12;34.08;;;14.43;;
41829;SDS011;38614;43.472;23.936;2023-11-22T04:51:02;34.28;;;16.88;;
41829;SDS011;38614;43.472;23.936;2023-11-22T04:53:50;28.02;;;17.33;;
41829;SDS011;38614;43.472;23.936;2023-11-22T04:56:40;34.97;;;20.83;;
41829;SDS011;38614;43.472;23.936;2023-11-22T04:59:28;28.60;;;16.00;;
41829;SDS011;38614;43.472;23.936;2023-11-22T05:02:15;29.45;;;16.08;;
41829;SDS011;38614;43.472;23.936;2023-11-22T05:05:03;28.00;;;14.90;;
41829;SDS011;38614;43.472;23.936;2023-11-22T05:07:51;28.75;;;13.88;;
41829;SDS011;38614;43.472;23.936;2023-11-22T05:10:40;32.25;;;15.00;;
41829;SDS011;38614;43.472;23.936;2023-11-22T05:13:28;24.20;;;13.15;;
41829;SDS011;38614;43.472;23.936;2023-11-22T05:16:17;23.85;;;14.25;;
41829;SDS011;38614;43.472;23.936;2023-11-22T05:19:05;30.65;;;14.85;;
41829;SDS011;38614;43.472;23.936;2023-11-22T05:21:53;33.22;;;16.10;;
41829;SDS011;38614;43.472;23.936;2023-11-22T05:24:41;31.63;;;16.52;;
41829;SDS011;38614;43.472;23.936;2023-11-22T05:27:28;28.38;;;16.75;;
41829;SDS011;38614;43.472;23.936;2023-11-22T05:30:18;33.03;;;15.93;;
41829;SDS011;38614;43.472;23.936;2023-11-22T05:33:08;37.05;;;17.60;;
41829;SDS011;38614;43.472;23.936;2023-11-22T05:35:55;30.95;;;16.13;;
41829;SDS011;38614;43.472;23.936;2023-11-22T05:38:43;30.05;;;15.73;;
41829;SDS011;38614;43.472;23.936;2023-11-22T05:41:31;33.53;;;16.08;;
41829;SDS011;38614;43.472;23.936;2023-11-22T05:44:18;34.25;;;17.48;;
41829;SDS011;38614;43.472;23.936;2023-11-22T05:47:09;37.80;;;20.77;;
41829;SDS011;38614;43.472;23.936;2023-11-22T05:49:57;28.70;;;16.77;;
41829;SDS011;38614;43.472;23.936;2023-11-22T05:52:45;34.78;;;17.52;;
41829;SDS011;38614;43.472;23.936;2023-11-22T05:55:32;31.13;;;16.48;;
41829;SDS011;38614;43.472;23.936;2023-11-22T05:58:20;41.25;;;21.75;;
41829;SDS011;38614;43.472;23.936;2023-11-22T06:01:08;48.97;;;25.98;;
41829;SDS011;38614;43.472;23.936;2023-11-22T06:03:56;49.05;;;24.30;;
41829;SDS011;38614;43.472;23.936;2023-11-22T06:06:44;46.40;;;23.90;;
41829;SDS011;38614;43.472;23.936;2023-11-22T06:09:41;49.50;;;25.42;;
41829;SDS011;38614;43.472;23.936;2023-11-22T06:12:32;47.83;;;23.08;;
41829;SDS011;38614;43.472;23.936;2023-11-22T06:15:19;41.05;;;20.42;;
41829;SDS011;38614;43.472;23.936;2023-11-22T06:18:11;44.65;;;20.85;;
41829;SDS011;38614;43.472;23.936;2023-11-22T06:21:04;39.90;;;19.73;;
41829;SDS011;38614;43.472;23.936;2023-11-22T06:23:53;49.13;;;20.27;;
41829;SDS011;38614;43.472;23.936;2023-11-22T06:26:44;41.80;;;22.02;;
41829;SDS011;38614;43.472;23.936;2023-11-22T06:29:35;37.67;;;19.92;;
41829;SDS011;38614;43.472;23.936;2023-11-22T06:32:22;62.70;;;31.98;;
41829;SDS011;38614;43.472;23.936;2023-11-22T06:35:10;64.53;;;31.77;;
41829;SDS011;38614;43.472;23.936;2023-11-22T06:38:02;49.70;;;28.23;;
41829;SDS011;38614;43.472;23.936;2023-11-22T06:40:50;53.85;;;29.98;;
41829;SDS011;38614;43.472;23.936;2023-11-22T06:43:38;60.15;;;31.42;;
41829;SDS011;38614;43.472;23.936;2023-11-22T06:46:26;57.15;;;29.30;;
41829;SDS011;38614;43.472;23.936;2023-11-22T06:49:14;62.40;;;29.52;;
41829;SDS011;38614;43.472;23.936;2023-11-22T06:52:01;47.75;;;23.02;;
41829;SDS011;38614;43.472;23.936;2023-11-22T06:54:49;37.58;;;18.63;;
41829;SDS011;38614;43.472;23.936;2023-11-22T06:57:37;40.83;;;19.17;;
41829;SDS011;38614;43.472;23.936;2023-11-22T07:00:25;38.95;;;21.40;;
41829;SDS011;38614;43.472;23.936;2023-11-22T07:03:14;37.20;;;20.17;;
41829;SDS011;38614;43.472;23.936;2023-11-22T07:06:03;36.42;;;16.58;;
41829;SDS011;38614;43.472;23.936;2023-11-22T07:08:51;34.58;;;17.48;;
41829;SDS011;38614;43.472;23.936;2023-11-22T07:11:39;33.83;;;16.67;;
41829;SDS011;38614;43.472;23.936;2023-11-22T07:14:27;31.85;;;16.50;;
41829;SDS011;38614;43.472;23.936;2023-11-22T07:17:16;31.88;;;16.38;;
41829;SDS011;38614;43.472;23.936;2023-11-22T07:20:09;30.48;;;15.43;;
41829;SDS011;38614;43.472;23.936;2023-11-22T07:23:03;35.40;;;15.10;;
41829;SDS011;38614;43.472;23.936;2023-11-22T07:25:51;27.15;;;14.88;;
41829;SDS011;38614;43.472;23.936;2023-11-22T07:28:39;30.35;;;13.25;;
41829;SDS011;38614;43.472;23.936;2023-11-22T07:31:27;33.55;;;14.43;;
41829;SDS011;38614;43.472;23.936;2023-11-22T07:34:16;29.17;;;14.27;;
41829;SDS011;38614;43.472;23.936;2023-11-22T07:37:06;36.72;;;16.88;;
41829;SDS011;38614;43.472;23.936;2023-11-22T07:39:54;35.42;;;17.08;;
41829;SDS011;38614;43.472;23.936;2023-11-22T07:42:42;29.27;;;14.68;;
41829;SDS011;38614;43.472;23.936;2023-11-22T07:45:31;28.95;;;13.80;;
41829;SDS011;38614;43.472;23.936;2023-11-22T07:48:21;23.52;;;13.38;;
41829;SDS011;38614;43.472;23.936;2023-11-22T07:51:10;26.23;;;13.48;;
41829;SDS011;38614;43.472;23.936;2023-11-22T07:53:58;24.08;;;12.95;;
41829;SDS011;38614;43.472;23.936;2023-11-22T07:56:46;23.50;;;12.65;;
41829;SDS011;38614;43.472;23.936;2023-11-22T07:59:36;24.80;;;12.57;;
41829;SDS011;38614;43.472;23.936;2023-11-22T08:02:24;29.02;;;12.38;;
41829;SDS011;38614;43.472;23.936;2023-11-22T08:05:12;25.27;;;12.38;;
41829;SDS011;38614;43.472;23.936;2023-11-22T08:08:18;21.58;;;10.90;;
41829;SDS011;38614;43.472;23.936;2023-11-22T08:11:08;24.98;;;11.93;;
41829;SDS011;38614;43.472;23.936;2023-11-22T08:14:03;27.42;;;11.40;;
41829;SDS011;38614;43.472;23.936;2023-11-22T08:16:51;22.23;;;10.18;;
41829;SDS011;38614;43.472;23.936;2023-11-22T08:19:39;20.08;;;10.88;;
41829;SDS011;38614;43.472;23.936;2023-11-22T08:22:27;19.60;;;10.15;;
41829;SDS011;38614;43.472;23.936;2023-11-22T08:25:16;14.00;;;8.68;;
41829;SDS011;38614;43.472;23.936;2023-11-22T08:28:04;15.75;;;9.15;;
41829;SDS011;38614;43.472;23.936;2023-11-22T08:30:55;20.33;;;10.77;;
41829;SDS011;38614;43.472;23.936;2023-11-22T08:33:44;22.60;;;10.38;;
41829;SDS011;38614;43.472;23.936;2023-11-22T08:36:33;17.10;;;8.95;;
41829;SDS011;38614;43.472;23.936;2023-11-22T08:39:21;18.35;;;10.07;;
41829;SDS011;38614;43.472;23.936;2023-11-22T08:42:09;14.63;;;9.00;;
41829;SDS011;38614;43.472;23.936;2023-11-22T08:44:59;14.90;;;8.30;;
41829;SDS011;38614;43.472;23.936;2023-11-22T08:47:46;14.43;;;8.85;;
41829;SDS011;38614;43.472;23.936;2023-11-22T08:50:35;15.25;;;9.18;;
41829;SDS011;38614;43.472;23.936;2023-11-22T08:53:23;20.67;;;10.10;;
41829;SDS011;38614;43.472;23.936;2023-11-22T08:56:11;16.85;;;10.40;;
41829;SDS011;38614;43.472;23.936;2023-11-22T08:58:58;13.95;;;9.02;;
41829;SDS011;38614;43.472;23.936;2023-11-22T09:01:46;16.27;;;8.90;;
41829;SDS011;38614;43.472;23.936;2023-11-22T09:04:33;18.55;;;8.95;;
41829;SDS011;38614;43.472;23.936;2023-11-22T09:07:22;13.88;;;8.25;;
41829;SDS011;38614;43.472;23.936;2023-11-22T09:10:11;14.48;;;7.50;;
41829;SDS011;38614;43.472;23.936;2023-11-22T09:13:02;16.90;;;8.57;;
41829;SDS011;38614;43.472;23.936;2023-11-22T09:15:50;13.32;;;7.93;;
41829;SDS011;38614;43.472;23.936;2023-11-22T09:18:37;12.75;;;7.68;;
41829;SDS011;38614;43.472;23.936;2023-11-22T09:21:25;15.63;;;8.63;;
41829;SDS011;38614;43.472;23.936;2023-11-22T09:24:13;27.40;;;8.57;;
41829;SDS011;38614;43.472;23.936;2023-11-22T09:27:03;10.48;;;6.70;;
41829;SDS011;38614;43.472;23.936;2023-11-22T09:29:52;11.63;;;7.40;;
41829;SDS011;38614;43.472;23.936;2023-11-22T09:32:41;15.05;;;7.20;;
41829;SDS011;38614;43.472;23.936;2023-11-22T09:35:29;11.23;;;7.45;;
41829;SDS011;38614;43.472;23.936;2023-11-22T09:38:19;12.30;;;7.32;;
41829;SDS011;38614;43.472;23.936;2023-11-22T09:41:07;12.73;;;7.60;;
41829;SDS011;38614;43.472;23.936;2023-11-22T09:43:56;9.60;;;6.15;;
41829;SDS011;38614;43.472;23.936;2023-11-22T09:46:46;9.50;;;6.35;;
41829;SDS011;38614;43.472;23.936;2023-11-22T09:49:35;11.48;;;6.05;;
41829;SDS011;38614;43.472;23.936;2023-11-22T09:52:27;25.95;;;7.30;;
41829;SDS011;38614;43.472;23.936;2023-11-22T09:55:15;13.32;;;7.05;;
41829;SDS011;38614;43.472;23.936;2023-11-22T09:58:04;9.52;;;6.38;;
41829;SDS011;38614;43.472;23.936;2023-11-22T10:00:53;6.68;;;5.03;;
41829;SDS011;38614;43.472;23.936;2023-11-22T10:03:41;8.98;;;5.95;;
41829;SDS011;38614;43.472;23.936;2023-11-22T10:06:29;11.82;;;6.70;;
41829;SDS011;38614;43.472;23.936;2023-11-22T10:09:20;9.50;;;5.53;;
41829;SDS011;38614;43.472;23.936;2023-11-22T10:12:13;11.68;;;6.00;;
41829;SDS011;38614;43.472;23.936;2023-11-22T10:15:11;14.05;;;6.00;;
41829;SDS011;38614;43.472;23.936;2023-11-22T10:17:59;8.27;;;6.05;;
41829;SDS011;38614;43.472;23.936;2023-11-22T10:20:51;7.70;;;5.20;;
41829;SDS011;38614;43.472;23.936;2023-11-22T10:23:39;9.38;;;6.38;;
41829;SDS011;38614;43.472;23.936;2023-11-22T10:26:28;12.63;;;7.55;;
41829;SDS011;38614;43.472;23.936;2023-11-22T10:29:16;11.90;;;6.75;;
41829;SDS011;38614;43.472;23.936;2023-11-22T10:32:05;10.60;;;7.10;;
41829;SDS011;38614;43.472;23.936;2023-11-22T10:34:55;13.32;;;8.35;;
41829;SDS011;38614;43.472;23.936;2023-11-22T10:37:42;19.50;;;11.30;;
41829;SDS011;38614;43.472;23.936;2023-11-22T10:40:31;19.00;;;9.93;;
41829;SDS011;38614;43.472;23.936;2023-11-22T10:43:19;10.77;;;7.55;;
41829;SDS011;38614;43.472;23.936;2023-11-22T10:46:08;8.13;;;5.57;;
41829;SDS011;38614;43.472;23.936;2023-11-22T10:48:58;10.25;;;5.65;;
41829;SDS011;38614;43.472;23.936;2023-11-22T10:51:48;8.98;;;5.35;;
41829;SDS011;38614;43.472;23.936;2023-11-22T10:54:37;10.68;;;4.45;;
41829;SDS011;38614;43.472;23.936;2023-11-22T10:57:28;9.55;;;4.57;;
41829;SDS011;38614;43.472;23.936;2023-11-22T11:00:19;8.65;;;4.80;;
41829;SDS011;38614;43.472;23.936;2023-11-22T11:03:19;9.20;;;5.90;;
41829;SDS011;38614;43.472;23.936;2023-11-22T11:06:09;7.38;;;5.43;;
41829;SDS011;38614;43.472;23.936;2023-11-22T11:09:01;11.60;;;7.25;;
41829;SDS011;38614;43.472;23.936;2023-11-22T11:11:53;10.18;;;6.53;;
41829;SDS011;38614;43.472;23.936;2023-11-22T11:14:41;9.27;;;5.85;;
41829;SDS011;38614;43.472;23.936;2023-11-22T11:17:29;7.53;;;5.20;;
41829;SDS011;38614;43.472;23.936;2023-11-22T11:20:18;10.18;;;5.80;;
41829;SDS011;38614;43.472;23.936;2023-11-22T11:23:07;7.75;;;4.90;;
41829;SDS011;38614;43.472;23.936;2023-11-22T11:25:59;9.50;;;5.43;;
41829;SDS011;38614;43.472;23.936;2023-11-22T11:28:55;9.07;;;5.22;;
41829;SDS011;38614;43.472;23.936;2023-11-22T11:31:43;6.63;;;5.13;;
41829;SDS011;38614;43.472;23.936;2023-11-22T11:34:35;12.65;;;4.43;;
41829;SDS011;38614;43.472;23.936;2023-11-22T11:37:25;12.60;;;4.90;;
41829;SDS011;38614;43.472;23.936;2023-11-22T11:40:26;8.73;;;4.55;;
41829;SDS011;38614;43.472;23.936;2023-11-22T11:43:14;7.18;;;4.20;;
41829;SDS011;38614;43.472;23.936;2023-11-22T11:46:02;7.55;;;5.80;;
41829;SDS011;38614;43.472;23.936;2023-11-22T11:48:55;9.70;;;4.70;;
41829;SDS011;38614;43.472;23.936;2023-11-22T11:51:43;6.63;;;4.07;;
41829;SDS011;38614;43.472;23.936;2023-11-22T11:54:31;7.78;;;5.03;;
41829;SDS011;38614;43.472;23.936;2023-11-22T11:57:19;9.68;;;5.50;;
41829;SDS011;38614;43.472;23.936;2023-11-22T12:00:06;8.32;;;5.43;;
41829;SDS011;38614;43.472;23.936;2023-11-22T12:02:59;13.55;;;5.90;;
41829;SDS011;38614;43.472;23.936;2023-11-22T12:05:47;11.15;;;6.35;;
41829;SDS011;38614;43.472;23.936;2023-11-22T12:08:40;10.82;;;6.40;;
41829;SDS011;38614;43.472;23.936;2023-11-22T12:11:28;8.23;;;5.88;;
41829;SDS011;38614;43.472;23.936;2023-11-22T12:14:17;5.72;;;5.07;;
41829;SDS011;38614;43.472;23.936;2023-11-22T12:17:06;7.38;;;3.90;;
41829;SDS011;38614;43.472;23.936;2023-11-22T12:20:11;7.63;;;4.82;;
41829;SDS011;38614;43.472;23.936;2023-11-22T12:23:02;10.52;;;5.72;;
41829;SDS011;38614;43.472;23.936;2023-11-22T12:25:53;7.78;;;5.20;;
41829;SDS011;38614;43.472;23.936;2023-11-22T12:28:41;7.50;;;4.85;;
41829;SDS011;38614;43.472;23.936;2023-11-22T12:31:46;8.35;;;4.75;;
41829;SDS011;38614;43.472;23.936;2023-11-22T12:34:34;12.40;;;7.07;;
41829;SDS011;38614;43.472;23.936;2023-11-22T12:37:21;10.93;;;7.15;;
41829;SDS011;38614;43.472;23.936;2023-11-22T12:40:10;12.82;;;6.38;;
41829;SDS011;38614;43.472;23.936;2023-11-22T12:42:58;7.60;;;5.72;;
41829;SDS011;38614;43.472;23.936;2023-11-22T12:45:52;9.90;;;5.68;;
41829;SDS011;38614;43.472;23.936;2023-11-22T12:48:45;8.55;;;5.28;;
41829;SDS011;38614;43.472;23.936;2023-11-22T12:51:32;9.00;;;5.72;;
41829;SDS011;38614;43.472;23.936;2023-11-22T12:54:20;8.50;;;5.90;;
41829;SDS011;38614;43.472;23.936;2023-11-22T12:57:11;15.02;;;7.80;;
41829;SDS011;38614;43.472;23.936;2023-11-22T13:00:00;16.65;;;6.55;;
41829;SDS011;38614;43.472;23.936;2023-11-22T13:02:48;12.00;;;6.05;;
41829;SDS011;38614;43.472;23.936;2023-11-22T13:05:49;7.03;;;4.90;;
41829;SDS011;38614;43.472;23.936;2023-11-22T13:08:39;9.80;;;5.38;;
41829;SDS011;38614;43.472;23.936;2023-11-22T13:11:27;6.70;;;4.70;;
41829;SDS011;38614;43.472;23.936;2023-11-22T13:14:15;9.88;;;4.25;;
41829;SDS011;38614;43.472;23.936;2023-11-22T13:17:04;7.10;;;4.18;;
41829;SDS011;38614;43.472;23.936;2023-11-22T13:19:53;7.15;;;4.63;;
41829;SDS011;38614;43.472;23.936;2023-11-22T13:22:41;21.38;;;9.63;;
41829;SDS011;38614;43.472;23.936;2023-11-22T13:25:29;13.48;;;7.10;;
41829;SDS011;38614;43.472;23.936;2023-11-22T13:28:18;8.20;;;5.35;;
41829;SDS011;38614;43.472;23.936;2023-11-22T13:31:06;13.00;;;5.10;;
41829;SDS011;38614;43.472;23.936;2023-11-22T13:33:53;4.80;;;3.75;;
41829;SDS011;38614;43.472;23.936;2023-11-22T13:36:43;6.32;;;3.63;;
41829;SDS011;38614;43.472;23.936;2023-11-22T13:39:32;7.70;;;4.68;;
41829;SDS011;38614;43.472;23.936;2023-11-22T13:42:23;5.00;;;3.92;;
41829;SDS011;38614;43.472;23.936;2023-11-22T13:45:11;5.28;;;3.63;;
41829;SDS011;38614;43.472;23.936;2023-11-22T13:48:03;3.78;;;3.10;;
41829;SDS011;38614;43.472;23.936;2023-11-22T13:50:58;5.28;;;3.78;;
41829;SDS011;38614;43.472;23.936;2023-11-22T13:53:47;7.45;;;4.78;;
41829;SDS011;38614;43.472;23.936;2023-11-22T13:56:40;6.60;;;5.30;;
41829;SDS011;38614;43.472;23.936;2023-11-22T13:59:28;9.30;;;5.13;;
41829;SDS011;38614;43.472;23.936;2023-11-22T14:02:18;7.53;;;4.03;;
41829;SDS011;38614;43.472;23.936;2023-11-22T14:05:06;5.07;;;3.42;;
41829;SDS011;38614;43.472;23.936;2023-11-22T14:07:59;8.07;;;4.22;;
41829;SDS011;38614;43.472;23.936;2023-11-22T14:10:47;5.32;;;4.20;;
41829;SDS011;38614;43.472;23.936;2023-11-22T14:13:35;8.90;;;4.72;;
41829;SDS011;38614;43.472;23.936;2023-11-22T14:16:23;7.63;;;5.40;;
41829;SDS011;38614;43.472;23.936;2023-11-22T14:19:10;8.85;;;5.55;;
41829;SDS011;38614;43.472;23.936;2023-11-22T14:21:58;12.98;;;5.47;;
41829;SDS011;38614;43.472;23.936;2023-11-22T14:24:46;10.65;;;5.60;;
41829;SDS011;38614;43.472;23.936;2023-11-22T14:27:39;10.05;;;6.15;;
41829;SDS011;38614;43.472;23.936;2023-11-22T14:30:27;7.45;;;5.25;;
41829;SDS011;38614;43.472;23.936;2023-11-22T14:33:18;10.00;;;5.38;;
41829;SDS011;38614;43.472;23.936;2023-11-22T14:36:06;11.10;;;6.05;;
41829;SDS011;38614;43.472;23.936;2023-11-22T14:38:54;27.77;;;6.40;;
41829;SDS011;38614;43.472;23.936;2023-11-22T14:41:43;12.88;;;7.15;;
41829;SDS011;38614;43.472;23.936;2023-11-22T14:44:32;9.50;;;5.53;;
41829;SDS011;38614;43.472;23.936;2023-11-22T14:47:19;14.95;;;6.63;;
41829;SDS011;38614;43.472;23.936;2023-11-22T14:50:11;20.15;;;11.32;;
41829;SDS011;38614;43.472;23.936;2023-11-22T14:52:59;18.33;;;11.77;;
41829;SDS011;38614;43.472;23.936;2023-11-22T14:55:47;13.30;;;9.20;;
41829;SDS011;38614;43.472;23.936;2023-11-22T14:58:34;18.05;;;9.30;;
41829;SDS011;38614;43.472;23.936;2023-11-22T15:01:23;15.35;;;9.60;;
41829;SDS011;38614;43.472;23.936;2023-11-22T15:04:12;17.52;;;8.65;;
41829;SDS011;38614;43.472;23.936;2023-11-22T15:07:00;12.68;;;8.00;;
41829;SDS011;38614;43.472;23.936;2023-11-22T15:09:48;16.67;;;8.35;;
41829;SDS011;38614;43.472;23.936;2023-11-22T15:12:36;14.77;;;8.05;;
41829;SDS011;38614;43.472;23.936;2023-11-22T15:15:31;13.35;;;8.30;;
41829;SDS011;38614;43.472;23.936;2023-11-22T15:18:19;13.85;;;7.50;;
41829;SDS011;38614;43.472;23.936;2023-11-22T15:21:10;14.57;;;7.65;;
41829;SDS011;38614;43.472;23.936;2023-11-22T15:23:57;15.50;;;7.40;;
41829;SDS011;38614;43.472;23.936;2023-11-22T15:26:45;10.57;;;6.43;;
41829;SDS011;38614;43.472;23.936;2023-11-22T15:29:33;11.82;;;5.78;;
41829;SDS011;38614;43.472;23.936;2023-11-22T15:32:21;13.93;;;7.25;;
41829;SDS011;38614;43.472;23.936;2023-11-22T15:35:10;9.15;;;6.07;;
41829;SDS011;38614;43.472;23.936;2023-11-22T15:37:57;32.60;;;15.82;;
41829;SDS011;38614;43.472;23.936;2023-11-22T15:40:45;23.23;;;12.95;;
41829;SDS011;38614;43.472;23.936;2023-11-22T15:43:36;23.70;;;15.52;;
41829;SDS011;38614;43.472;23.936;2023-11-22T15:46:23;18.00;;;11.55;;
41829;SDS011;38614;43.472;23.936;2023-11-22T15:49:11;16.05;;;9.25;;
41829;SDS011;38614;43.472;23.936;2023-11-22T15:52:02;16.38;;;10.18;;
41829;SDS011;38614;43.472;23.936;2023-11-22T15:54:53;15.73;;;9.98;;
41829;SDS011;38614;43.472;23.936;2023-11-22T15:57:40;20.40;;;12.48;;
41829;SDS011;38614;43.472;23.936;2023-11-22T16:00:28;22.77;;;12.85;;
41829;SDS011;38614;43.472;23.936;2023-11-22T16:03:16;43.95;;;25.30;;
41829;SDS011;38614;43.472;23.936;2023-11-22T16:06:05;14.93;;;10.00;;
41829;SDS011;38614;43.472;23.936;2023-11-22T16:08:55;23.02;;;11.80;;
41829;SDS011;38614;43.472;23.936;2023-11-22T16:11:43;48.38;;;20.60;;
41829;SDS011;38614;43.472;23.936;2023-11-22T16:14:31;32.92;;;16.60;;
41829;SDS011;38614;43.472;23.936;2023-11-22T16:17:20;34.92;;;18.17;;
41829;SDS011;38614;43.472;23.936;2023-11-22T16:20:08;19.00;;;10.02;;
41829;SDS011;38614;43.472;23.936;2023-11-22T16:22:59;11.98;;;8.00;;